Columbia Metropolitan Airport Columbia US
ICAO: KCAE
IATA: CAE
Category: Large
Scheduled Services: Yes

Elevation: 236 ft
TransAlt. 18000 ft.

Airport Communications:
APP/DEP:124.15
ATIS:120.15
CLNC DEL:119.75
GND:121.9
ANDERSON RDO:122.65
TWR:119.5
UNICOM:122.95

KCAE Zoom In..

If Map Doesn't Load, Click Here

Runways:

(A) RW 05 length 8001 ft width 150 ft
ILS 108.95 / hdg 50

(B) RW 11 length 8601 ft width 150 ft
ILS 110.30 / hdg 110

(C) RW 23 length 8001 ft width 150 ft
---- / hdg 230

(D) RW 29 length 8601 ft width 150 ft
ILS 108.30 / hdg 290

Location; KCAE
Day. 23 / Time. 07.56 Zulu
* Altimeter: 30.05
* Temperature: 21° c. 69.8°f.
* Wind from: 000° Speed 00 kn.
Dewpoint: 20° c.
Visibility: 10 Statute Miles.
Clouds: Clear (automated report).

KCAE 230756Z 00000KT 10SM CLR 21/20 A3005 RMK AO2 SLP174 T02110200


Wind - Calm.

 
 
jpsmedia.com for Web Design worldairports.se 2018   terms of use